Time;durP1;ratioP1;P1;durP2;ratioP2;P2;SDS_P1;SDS_P2;PMS_P1;PMS_P2;Temp;Humidity;BMP_temperature;BMP_pressure;BME280_temperature;BME280_humidity;BME280_pressure;Samples;Min_cycle;Max_cycle;Signal;HPM_P1;HPM_P2
2021/12/16 00:03:50;;;;;;;21.20;12.83;;;;;;;;;;5023619;28;20614;-82
2021/12/16 00:06:45;;;;;;;19.33;12.57;;;;;;;;;;5016909;28;20200;-82
2021/12/16 00:09:10;;;;;;;23.00;13.90;;;;;;;;;;5018407;28;20200;-82
2021/12/16 00:29:02;;;;;;;20.53;13.27;;;;;;;;;;4973037;28;20194;-82
2021/12/16 00:31:44;;;;;;;25.03;17.43;;;;;;;;;;4992495;28;20209;-82
2021/12/16 00:34:12;;;;;;;22.53;15.03;;;;;;;;;;4990138;28;20611;-82
2021/12/16 00:36:40;;;;;;;25.27;16.87;;;;;;;;;;4989285;28;20209;-82
2021/12/16 00:39:09;;;;;;;23.07;15.23;;;;;;;;;;4977824;28;20293;-81
2021/12/16 00:41:38;;;;;;;21.40;14.30;;;;;;;;;;4978629;28;20288;-82
2021/12/16 00:44:15;;;;;;;23.90;16.00;;;;;;;;;;4974149;28;20214;-82
2021/12/16 00:46:59;;;;;;;25.67;16.77;;;;;;;;;;4976861;28;20409;-82
2021/12/16 00:49:38;;;;;;;28.33;18.23;;;;;;;;;;4985227;28;20693;-82
2021/12/16 00:55:01;;;;;;;28.30;18.70;;;;;;;;;;5025865;28;20679;-82
2021/12/16 00:57:29;;;;;;;25.47;16.43;;;;;;;;;;5028043;28;20233;-82
2021/12/16 01:00:00;;;;;;;25.60;16.17;;;;;;;;;;5025026;28;20232;-82
2021/12/16 01:02:51;;;;;;;22.50;15.60;;;;;;;;;;5013972;28;20224;-82
2021/12/16 01:36:12;;;;;;;25.20;15.83;;;;;;;;;;4953983;28;20323;-82
2021/12/16 01:39:26;;;;;;;28.27;17.73;;;;;;;;;;4938283;29;20306;-82
2021/12/16 01:47:41;;;;;;;30.10;18.37;;;;;;;;;;5015814;28;20566;-82
2021/12/16 01:50:16;;;;;;;27.13;16.87;;;;;;;;;;5012947;28;20610;-82
2021/12/16 01:53:08;;;;;;;26.37;17.53;;;;;;;;;;5027086;28;20196;-82
2021/12/16 01:55:41;;;;;;;30.33;17.47;;;;;;;;;;5027411;28;20742;-82
2021/12/16 01:58:14;;;;;;;29.33;17.40;;;;;;;;;;5028530;28;20201;-82
2021/12/16 02:00:53;;;;;;;26.97;16.87;;;;;;;;;;5033381;28;20270;-82
2021/12/16 02:03:26;;;;;;;27.23;16.73;;;;;;;;;;5015233;28;20582;-82
2021/12/16 02:06:03;;;;;;;28.13;17.93;;;;;;;;;;5022914;28;20574;-82
2021/12/16 02:08:35;;;;;;;29.00;18.13;;;;;;;;;;5030730;28;20680;-82
2021/12/16 02:36:12;;;;;;;28.27;16.53;;;;;;;;;;4989448;28;20209;-82
2021/12/16 02:38:43;;;;;;;30.70;17.43;;;;;;;;;;4991803;28;20293;-82
2021/12/16 02:41:10;;;;;;;29.17;17.77;;;;;;;;;;4991347;28;20553;-82
2021/12/16 02:49:06;;;;;;;26.63;16.33;;;;;;;;;;4986866;28;20200;-82
2021/12/16 02:51:34;;;;;;;26.63;16.33;;;;;;;;;;4993308;28;20284;-82
2021/12/16 02:54:04;;;;;;;24.67;16.07;;;;;;;;;;4980903;28;20273;-82
2021/12/16 02:56:32;;;;;;;25.23;16.13;;;;;;;;;;4990436;28;20292;-82
2021/12/16 02:59:00;;;;;;;28.47;17.43;;;;;;;;;;4989092;28;20301;-82
2021/12/16 03:01:29;;;;;;;26.93;16.20;;;;;;;;;;4991786;28;20787;-82
2021/12/16 03:03:57;;;;;;;23.00;14.20;;;;;;;;;;4983888;28;20229;-82
2021/12/16 03:06:27;;;;;;;22.07;14.57;;;;;;;;;;4972270;28;20761;-82
2021/12/16 03:08:54;;;;;;;22.60;15.13;;;;;;;;;;4987217;28;20197;-82
2021/12/16 03:11:27;;;;;;;22.77;14.70;;;;;;;;;;5021523;28;20233;-82
2021/12/16 03:14:18;;;;;;;23.43;15.53;;;;;;;;;;5013788;28;20247;-82
2021/12/16 03:16:55;;;;;;;23.23;15.13;;;;;;;;;;5013167;28;20205;-82
2021/12/16 03:19:30;;;;;;;23.80;15.90;;;;;;;;;;5013458;28;20567;-82
2021/12/16 03:22:01;;;;;;;25.87;16.00;;;;;;;;;;5013571;28;20213;-82
2021/12/16 03:25:04;;;;;;;24.30;15.37;;;;;;;;;;5016591;28;20236;-82
2021/12/16 03:27:58;;;;;;;23.90;15.17;;;;;;;;;;5026672;28;20228;-82
2021/12/16 03:33:29;;;;;;;23.60;15.90;;;;;;;;;;5032121;28;20196;-82
2021/12/16 03:36:07;;;;;;;23.53;15.03;;;;;;;;;;5033398;28;20200;-82
2021/12/16 03:38:36;;;;;;;22.97;15.13;;;;;;;;;;5032424;28;20204;-82
2021/12/16 03:41:04;;;;;;;21.67;14.70;;;;;;;;;;5032740;28;20286;-82
2021/12/16 03:43:34;;;;;;;25.03;15.80;;;;;;;;;;5016861;28;20209;-82
2021/12/16 03:48:49;;;;;;;22.30;14.87;;;;;;;;;;5018742;28;20568;-82
2021/12/16 03:51:18;;;;;;;23.00;15.53;;;;;;;;;;5017758;28;20283;-82
2021/12/16 03:53:46;;;;;;;21.40;14.67;;;;;;;;;;5031525;28;20758;-82
2021/12/16 03:56:14;;;;;;;21.00;14.37;;;;;;;;;;5029971;28;20327;-82
2021/12/16 03:58:42;;;;;;;23.10;15.17;;;;;;;;;;5016186;28;20289;-82
2021/12/16 04:01:12;;;;;;;23.97;15.83;;;;;;;;;;5030260;28;20232;-82
2021/12/16 04:03:39;;;;;;;25.47;16.40;;;;;;;;;;5022449;28;20283;-82
2021/12/16 04:06:07;;;;;;;23.13;15.97;;;;;;;;;;5018842;28;20280;-82
2021/12/16 04:08:34;;;;;;;25.17;16.13;;;;;;;;;;5012265;28;20635;-83
2021/12/16 04:11:04;;;;;;;21.50;16.10;;;;;;;;;;5013105;28;20203;-82
2021/12/16 04:13:36;;;;;;;22.33;15.57;;;;;;;;;;5020005;28;20224;-82
2021/12/16 04:16:06;;;;;;;23.83;16.27;;;;;;;;;;5019613;28;20255;-82
2021/12/16 04:18:33;;;;;;;21.77;14.33;;;;;;;;;;5026287;28;20217;-82
2021/12/16 04:21:01;;;;;;;18.63;11.83;;;;;;;;;;5014164;28;20287;-82
2021/12/16 04:23:28;;;;;;;19.07;14.00;;;;;;;;;;5032014;28;20291;-82
2021/12/16 04:25:55;;;;;;;19.00;12.77;;;;;;;;;;5031547;28;20314;-82
2021/12/16 04:28:24;;;;;;;19.30;14.03;;;;;;;;;;5017473;28;20193;-82
2021/12/16 04:30:52;;;;;;;19.57;13.57;;;;;;;;;;5031288;28;20238;-82
2021/12/16 04:33:21;;;;;;;19.93;13.83;;;;;;;;;;5018190;28;20209;-82
2021/12/16 04:35:48;;;;;;;19.50;13.43;;;;;;;;;;5031741;28;20619;-83
2021/12/16 04:38:16;;;;;;;18.63;13.13;;;;;;;;;;5034376;28;20292;-82
2021/12/16 04:40:46;;;;;;;18.77;12.97;;;;;;;;;;5031879;28;20208;-82
2021/12/16 04:43:19;;;;;;;19.03;13.63;;;;;;;;;;5020498;28;20259;-82
2021/12/16 04:45:47;;;;;;;18.53;13.10;;;;;;;;;;5024631;28;20232;-82
2021/12/16 04:48:14;;;;;;;19.77;14.30;;;;;;;;;;5031587;28;20654;-82
2021/12/16 04:50:42;;;;;;;18.77;13.07;;;;;;;;;;5015681;28;20611;-82
2021/12/16 04:53:10;;;;;;;18.77;12.73;;;;;;;;;;5014547;28;20287;-82
2021/12/16 04:55:37;;;;;;;17.93;13.03;;;;;;;;;;5030352;28;20331;-82
2021/12/16 04:58:05;;;;;;;20.87;14.60;;;;;;;;;;5020843;28;20280;-82
2021/12/16 05:00:32;;;;;;;20.90;14.87;;;;;;;;;;5024880;28;20287;-82
2021/12/16 05:02:59;;;;;;;21.27;14.87;;;;;;;;;;5017114;28;20239;-82
2021/12/16 05:05:26;;;;;;;22.17;15.67;;;;;;;;;;5031182;28;20227;-82
2021/12/16 05:07:55;;;;;;;23.10;16.13;;;;;;;;;;5022559;28;20288;-82
2021/12/16 05:10:22;;;;;;;23.70;16.10;;;;;;;;;;5012386;28;20272;-82
2021/12/16 05:12:51;;;;;;;24.70;16.30;;;;;;;;;;5015767;28;20271;-82
2021/12/16 05:15:19;;;;;;;20.77;14.97;;;;;;;;;;5014221;28;20205;-82
2021/12/16 05:17:50;;;;;;;19.57;14.10;;;;;;;;;;5025444;28;20240;-82
2021/12/16 05:20:20;;;;;;;20.23;14.50;;;;;;;;;;5011099;28;20208;-82
2021/12/16 05:25:46;;;;;;;22.87;16.07;;;;;;;;;;5026936;28;20307;-82
2021/12/16 05:28:14;;;;;;;23.27;16.27;;;;;;;;;;5019585;28;20725;-82
2021/12/16 05:30:41;;;;;;;25.27;16.53;;;;;;;;;;5018559;28;20288;-82
2021/12/16 05:33:08;;;;;;;22.87;15.60;;;;;;;;;;5026762;28;20200;-82
2021/12/16 05:35:37;;;;;;;21.87;14.63;;;;;;;;;;5030632;28;20193;-82
2021/12/16 05:38:04;;;;;;;22.10;14.47;;;;;;;;;;5025591;28;20203;-82
2021/12/16 05:40:34;;;;;;;21.80;14.77;;;;;;;;;;5030763;28;20210;-82
2021/12/16 05:43:02;;;;;;;21.07;14.50;;;;;;;;;;5021856;28;20224;-82
2021/12/16 05:45:30;;;;;;;21.07;13.10;;;;;;;;;;5028587;28;20307;-82
2021/12/16 05:47:59;;;;;;;18.53;12.20;;;;;;;;;;5028282;28;20231;-82
2021/12/16 05:50:26;;;;;;;20.00;11.77;;;;;;;;;;5032381;28;20232;-82
2021/12/16 05:52:54;;;;;;;18.07;11.73;;;;;;;;;;5015847;28;20284;-82
2021/12/16 05:55:22;;;;;;;19.77;12.67;;;;;;;;;;5024066;28;20228;-82
2021/12/16 05:57:51;;;;;;;19.07;11.63;;;;;;;;;;5020295;28;20301;-82
2021/12/16 06:00:20;;;;;;;18.47;10.90;;;;;;;;;;5020579;28;20271;-82
2021/12/16 06:02:47;;;;;;;16.70;10.97;;;;;;;;;;5015021;28;20232;-82
2021/12/16 06:05:15;;;;;;;19.43;11.80;;;;;;;;;;5019729;28;20307;-82
2021/12/16 06:07:42;;;;;;;19.23;11.57;;;;;;;;;;5013764;28;20199;-83
2021/12/16 06:10:19;;;;;;;17.90;10.83;;;;;;;;;;5021436;28;20649;-82
2021/12/16 06:12:46;;;;;;;18.77;11.33;;;;;;;;;;5019644;28;20201;-82
2021/12/16 06:15:22;;;;;;;17.53;10.77;;;;;;;;;;5030262;28;20279;-82
2021/12/16 06:28:47;;;;;;;18.27;11.37;;;;;;;;;;5029188;28;20226;-81
2021/12/16 06:31:16;;;;;;;18.80;11.00;;;;;;;;;;5024748;28;20205;-80
2021/12/16 06:33:44;;;;;;;16.60;10.67;;;;;;;;;;5032460;28;20215;-80
2021/12/16 06:36:12;;;;;;;16.77;10.70;;;;;;;;;;5015388;28;20276;-81
2021/12/16 06:38:39;;;;;;;17.63;10.63;;;;;;;;;;5021008;28;20315;-81
2021/12/16 06:41:06;;;;;;;18.33;10.90;;;;;;;;;;5020857;28;20203;-80
2021/12/16 06:43:34;;;;;;;17.50;11.50;;;;;;;;;;5013816;28;20291;-81
2021/12/16 06:46:05;;;;;;;17.43;11.00;;;;;;;;;;5014012;28;20224;-81
2021/12/16 06:48:37;;;;;;;16.37;10.63;;;;;;;;;;5022046;28;20208;-81
2021/12/16 06:51:09;;;;;;;17.03;10.97;;;;;;;;;;5017457;28;20201;-79
2021/12/16 06:53:47;;;;;;;16.03;10.37;;;;;;;;;;5013626;28;20205;-80
2021/12/16 06:56:21;;;;;;;16.43;10.97;;;;;;;;;;5025182;28;20240;-80
2021/12/16 06:58:51;;;;;;;15.40;10.97;;;;;;;;;;5033969;28;20200;-79
2021/12/16 07:01:31;;;;;;;13.40;9.57;;;;;;;;;;5025183;28;20201;-80
2021/12/16 07:04:00;;;;;;;16.33;11.30;;;;;;;;;;5012904;28;20255;-79
2021/12/16 07:06:30;;;;;;;14.00;8.80;;;;;;;;;;5020147;28;20841;-79
2021/12/16 07:08:59;;;;;;;13.03;9.40;;;;;;;;;;5029279;28;20663;-79
2021/12/16 07:11:27;;;;;;;13.33;9.50;;;;;;;;;;5013790;28;20284;-79
2021/12/16 07:13:59;;;;;;;11.63;8.30;;;;;;;;;;5013627;28;20232;-79
2021/12/16 07:16:27;;;;;;;15.53;9.10;;;;;;;;;;5013925;28;20199;-79
2021/12/16 07:18:54;;;;;;;14.03;10.00;;;;;;;;;;5012874;28;20300;-79
2021/12/16 07:21:23;;;;;;;14.03;9.10;;;;;;;;;;5013357;28;20650;-79
2021/12/16 07:23:50;;;;;;;15.20;10.23;;;;;;;;;;5013583;28;20201;-79
2021/12/16 07:26:17;;;;;;;16.67;10.60;;;;;;;;;;5013862;28;20331;-80
2021/12/16 07:28:44;;;;;;;16.70;11.30;;;;;;;;;;5013496;28;20227;-80
2021/12/16 07:31:12;;;;;;;15.13;10.20;;;;;;;;;;5013870;28;20632;-79
2021/12/16 07:33:39;;;;;;;16.93;10.83;;;;;;;;;;5020108;28;20239;-79
2021/12/16 07:36:07;;;;;;;16.03;10.97;;;;;;;;;;5033362;28;20618;-79
2021/12/16 07:38:37;;;;;;;17.67;10.70;;;;;;;;;;5032995;28;20204;-79
2021/12/16 07:41:04;;;;;;;13.30;8.40;;;;;;;;;;5033114;28;20207;-79
2021/12/16 07:43:53;;;;;;;14.20;9.50;;;;;;;;;;5033153;28;20239;-80
2021/12/16 07:46:21;;;;;;;12.30;8.80;;;;;;;;;;5033075;28;20282;-79
2021/12/16 07:48:48;;;;;;;12.17;8.40;;;;;;;;;;5033184;28;20279;-79
2021/12/16 07:51:16;;;;;;;13.00;8.17;;;;;;;;;;5032583;28;20246;-79
2021/12/16 07:53:44;;;;;;;11.40;8.53;;;;;;;;;;5032901;28;20236;-80
2021/12/16 07:56:12;;;;;;;10.30;8.00;;;;;;;;;;5032818;28;20324;-80
2021/12/16 07:58:40;;;;;;;10.50;8.10;;;;;;;;;;5032717;28;20291;-79
2021/12/16 08:01:08;;;;;;;10.97;8.30;;;;;;;;;;5032887;28;20232;-80
2021/12/16 08:03:36;;;;;;;10.40;7.17;;;;;;;;;;5032485;28;20239;-79
2021/12/16 08:06:06;;;;;;;11.27;7.87;;;;;;;;;;5032547;28;20279;-79
2021/12/16 08:08:33;;;;;;;10.50;7.63;;;;;;;;;;5032573;28;20594;-79
2021/12/16 08:11:02;;;;;;;11.53;8.03;;;;;;;;;;5032593;28;20296;-79
2021/12/16 08:13:29;;;;;;;10.43;7.00;;;;;;;;;;5032546;28;20243;-79
2021/12/16 08:15:56;;;;;;;10.30;7.47;;;;;;;;;;5032378;28;20260;-79
2021/12/16 08:18:23;;;;;;;10.77;7.83;;;;;;;;;;5033056;28;20655;-79
2021/12/16 08:20:51;;;;;;;8.63;7.30;;;;;;;;;;5032343;28;20204;-79
2021/12/16 08:23:18;;;;;;;10.03;7.30;;;;;;;;;;5032037;28;20197;-79
2021/12/16 08:25:45;;;;;;;10.60;7.13;;;;;;;;;;5031659;28;20303;-79
2021/12/16 08:28:14;;;;;;;10.73;7.60;;;;;;;;;;5016313;28;20248;-80
2021/12/16 08:30:44;;;;;;;9.73;7.23;;;;;;;;;;5012368;28;20288;-79
2021/12/16 08:33:12;;;;;;;9.40;6.40;;;;;;;;;;5012629;28;20293;-79
2021/12/16 08:35:41;;;;;;;10.67;7.30;;;;;;;;;;5011872;28;20223;-79
2021/12/16 08:38:08;;;;;;;9.30;7.23;;;;;;;;;;5012316;28;20201;-79
2021/12/16 08:40:36;;;;;;;10.30;7.33;;;;;;;;;;5025731;28;20292;-79
2021/12/16 08:43:04;;;;;;;9.80;7.53;;;;;;;;;;5031898;28;20746;-79
2021/12/16 08:45:33;;;;;;;9.40;7.03;;;;;;;;;;5031980;28;20331;-79
2021/12/16 08:48:01;;;;;;;10.50;7.60;;;;;;;;;;5031977;28;20208;-79
2021/12/16 08:50:30;;;;;;;11.83;7.70;;;;;;;;;;5025198;28;20304;-79
2021/12/16 08:52:59;;;;;;;10.53;7.43;;;;;;;;;;5011794;28;20291;-79
2021/12/16 08:55:27;;;;;;;9.77;7.47;;;;;;;;;;5011875;28;20236;-78
2021/12/16 08:57:56;;;;;;;9.87;7.40;;;;;;;;;;5012182;28;20287;-79
2021/12/16 09:00:24;;;;;;;8.90;7.33;;;;;;;;;;5012320;28;20218;-79
2021/12/16 09:02:53;;;;;;;9.83;7.60;;;;;;;;;;5012062;28;20208;-79
2021/12/16 09:05:21;;;;;;;10.40;7.90;;;;;;;;;;5011731;28;20300;-78
2021/12/16 09:07:48;;;;;;;10.07;7.80;;;;;;;;;;5011942;28;20588;-79
2021/12/16 09:10:21;;;;;;;8.63;6.93;;;;;;;;;;5012571;28;20282;-79
2021/12/16 09:13:02;;;;;;;10.00;7.17;;;;;;;;;;5012962;28;20201;-79
2021/12/16 09:15:31;;;;;;;11.50;8.00;;;;;;;;;;5012375;28;20213;-78
2021/12/16 09:18:00;;;;;;;12.80;7.93;;;;;;;;;;5011561;28;20664;-79
2021/12/16 09:20:27;;;;;;;11.40;8.00;;;;;;;;;;5012185;28;20255;-78
2021/12/16 09:22:54;;;;;;;9.77;7.73;;;;;;;;;;5011630;28;20931;-78
2021/12/16 09:25:22;;;;;;;8.87;7.53;;;;;;;;;;5012002;28;20287;-78
2021/12/16 09:27:50;;;;;;;11.10;8.10;;;;;;;;;;5020038;28;20231;-79
2021/12/16 09:30:20;;;;;;;10.27;7.50;;;;;;;;;;5031362;28;20215;-78
2021/12/16 09:32:48;;;;;;;11.03;7.60;;;;;;;;;;5015394;28;20287;-78
2021/12/16 09:35:17;;;;;;;9.93;7.67;;;;;;;;;;5011892;28;20200;-78
2021/12/16 09:37:44;;;;;;;9.80;7.57;;;;;;;;;;5011871;28;20288;-78
2021/12/16 09:40:13;;;;;;;9.50;7.40;;;;;;;;;;5011362;28;20236;-79
2021/12/16 09:42:41;;;;;;;10.83;7.13;;;;;;;;;;5013931;28;20684;-79
2021/12/16 09:45:10;;;;;;;10.33;6.93;;;;;;;;;;5015084;28;20201;-78
2021/12/16 09:47:37;;;;;;;9.10;7.27;;;;;;;;;;5015046;28;20312;-78
2021/12/16 09:50:05;;;;;;;9.37;6.90;;;;;;;;;;5017946;28;20299;-78
2021/12/16 09:52:33;;;;;;;10.53;6.53;;;;;;;;;;5033686;28;20291;-79
2021/12/16 09:55:01;;;;;;;9.70;7.33;;;;;;;;;;5034782;28;20291;-78
2021/12/16 09:57:28;;;;;;;9.37;6.83;;;;;;;;;;5034883;28;20274;-78
2021/12/16 09:59:56;;;;;;;9.00;6.83;;;;;;;;;;5035221;28;20211;-78
2021/12/16 10:02:23;;;;;;;9.97;7.37;;;;;;;;;;5034392;28;20580;-78
2021/12/16 10:04:51;;;;;;;8.93;6.20;;;;;;;;;;5034966;28;20298;-79
2021/12/16 10:07:19;;;;;;;8.10;6.30;;;;;;;;;;5027119;28;20323;-78
2021/12/16 10:09:49;;;;;;;8.00;6.30;;;;;;;;;;5035144;28;20292;-78
2021/12/16 10:12:20;;;;;;;7.80;6.27;;;;;;;;;;5034543;28;20242;-79
2021/12/16 10:15:03;;;;;;;8.10;6.17;;;;;;;;;;5035267;28;20273;-78
2021/12/16 10:17:32;;;;;;;7.60;6.33;;;;;;;;;;5034658;28;20202;-79
2021/12/16 10:20:01;;;;;;;8.37;6.33;;;;;;;;;;5034946;28;20287;-79
2021/12/16 10:22:33;;;;;;;7.67;6.20;;;;;;;;;;5034913;28;20312;-78
2021/12/16 10:25:17;;;;;;;9.57;6.53;;;;;;;;;;5034702;28;20207;-80
2021/12/16 10:27:59;;;;;;;9.43;6.50;;;;;;;;;;5032333;28;20313;-79
2021/12/16 10:30:27;;;;;;;7.90;6.80;;;;;;;;;;5034464;28;20207;-79
2021/12/16 10:32:54;;;;;;;7.20;5.57;;;;;;;;;;5034745;28;20280;-78
2021/12/16 10:35:28;;;;;;;8.23;6.83;;;;;;;;;;5034211;28;20247;-79
2021/12/16 10:37:57;;;;;;;8.60;6.23;;;;;;;;;;5034355;28;20283;-79
2021/12/16 10:40:29;;;;;;;8.87;6.73;;;;;;;;;;5034453;28;20310;-79
2021/12/16 10:42:57;;;;;;;8.00;6.80;;;;;;;;;;5034041;28;20663;-80
2021/12/16 10:45:28;;;;;;;9.17;7.67;;;;;;;;;;5033897;28;20291;-80
2021/12/16 10:48:09;;;;;;;8.10;6.20;;;;;;;;;;5034196;28;20231;-80
2021/12/16 10:51:03;;;;;;;8.23;5.90;;;;;;;;;;5033875;28;20298;-80
2021/12/16 10:54:00;;;;;;;10.30;5.83;;;;;;;;;;4971688;28;20726;-80
2021/12/16 10:56:30;;;;;;;7.97;6.00;;;;;;;;;;4972531;28;20230;-80
2021/12/16 10:58:59;;;;;;;6.57;5.77;;;;;;;;;;4972582;28;20298;-80
2021/12/16 11:01:31;;;;;;;6.37;5.43;;;;;;;;;;4972177;28;20281;-80
2021/12/16 11:03:59;;;;;;;7.70;5.23;;;;;;;;;;4972910;28;20206;-81
2021/12/16 11:06:30;;;;;;;7.23;4.87;;;;;;;;;;4972460;28;20228;-80
2021/12/16 11:09:12;;;;;;;7.13;5.57;;;;;;;;;;4972730;28;20245;-80
2021/12/16 11:11:41;;;;;;;5.27;4.33;;;;;;;;;;4972139;28;20297;-80
2021/12/16 11:14:09;;;;;;;5.00;4.37;;;;;;;;;;4971941;28;20297;-80
2021/12/16 11:16:37;;;;;;;5.50;4.70;;;;;;;;;;4972443;28;20289;-80
2021/12/16 11:19:05;;;;;;;4.83;4.30;;;;;;;;;;4972606;28;20209;-80
2021/12/16 11:21:39;;;;;;;5.30;4.23;;;;;;;;;;4972256;28;20297;-81
2021/12/16 11:24:22;;;;;;;4.93;4.03;;;;;;;;;;4972532;28;20272;-80
2021/12/16 11:26:51;;;;;;;5.37;4.30;;;;;;;;;;4972522;28;20314;-80
2021/12/16 11:29:18;;;;;;;4.93;4.20;;;;;;;;;;5003086;28;20240;-80
2021/12/16 11:31:47;;;;;;;4.83;4.33;;;;;;;;;;5033224;28;20639;-81
2021/12/16 11:34:19;;;;;;;5.27;4.50;;;;;;;;;;5033266;28;20202;-81
2021/12/16 11:36:49;;;;;;;5.20;4.13;;;;;;;;;;5033011;28;20633;-80
2021/12/16 11:39:17;;;;;;;6.27;4.30;;;;;;;;;;5030654;28;20243;-80
2021/12/16 11:41:46;;;;;;;5.43;4.40;;;;;;;;;;5013449;28;20284;-80
2021/12/16 11:44:17;;;;;;;5.17;4.10;;;;;;;;;;5013236;28;20220;-80
2021/12/16 11:46:46;;;;;;;4.83;4.00;;;;;;;;;;5013096;28;20225;-81
2021/12/16 11:49:15;;;;;;;4.53;3.87;;;;;;;;;;5013378;28;20297;-80
2021/12/16 11:51:44;;;;;;;5.70;4.20;;;;;;;;;;5028953;28;20247;-80
2021/12/16 11:54:16;;;;;;;5.83;4.50;;;;;;;;;;5032847;28;20240;-80
2021/12/16 11:56:45;;;;;;;5.47;4.00;;;;;;;;;;5031982;28;20795;-80
2021/12/16 11:59:12;;;;;;;5.10;4.30;;;;;;;;;;5012438;28;20227;-80
2021/12/16 12:01:41;;;;;;;6.40;4.40;;;;;;;;;;5012778;28;20224;-80
2021/12/16 12:04:10;;;;;;;6.03;4.07;;;;;;;;;;5012804;28;20654;-80
2021/12/16 12:06:40;;;;;;;5.73;3.90;;;;;;;;;;5012549;28;20705;-80
2021/12/16 12:09:08;;;;;;;5.87;4.37;;;;;;;;;;5012976;28;20340;-81
2021/12/16 12:11:38;;;;;;;6.10;4.33;;;;;;;;;;5012569;28;20307;-81
2021/12/16 12:14:07;;;;;;;5.40;4.37;;;;;;;;;;5012415;28;20205;-80
2021/12/16 12:16:36;;;;;;;5.47;4.47;;;;;;;;;;5012408;28;20197;-80
2021/12/16 12:19:10;;;;;;;4.27;3.70;;;;;;;;;;5023732;28;20235;-80
2021/12/16 12:21:39;;;;;;;5.30;4.10;;;;;;;;;;5032186;28;20264;-80
2021/12/16 12:24:09;;;;;;;5.40;4.13;;;;;;;;;;5032374;28;20323;-80
2021/12/16 12:26:38;;;;;;;4.57;3.80;;;;;;;;;;5031785;28;20315;-80
2021/12/16 12:29:08;;;;;;;5.40;3.80;;;;;;;;;;5032302;28;20290;-80
2021/12/16 12:31:37;;;;;;;6.17;4.40;;;;;;;;;;5032126;28;20201;-81
2021/12/16 12:34:06;;;;;;;5.13;3.97;;;;;;;;;;5017350;28;20284;-81
2021/12/16 12:36:34;;;;;;;4.87;3.60;;;;;;;;;;5012192;28;20238;-80
2021/12/16 12:39:02;;;;;;;4.70;3.97;;;;;;;;;;5012437;28;20211;-80
2021/12/16 12:41:30;;;;;;;5.30;3.73;;;;;;;;;;5011949;28;20205;-80
2021/12/16 12:43:58;;;;;;;5.07;3.97;;;;;;;;;;5028240;28;20644;-80
2021/12/16 12:46:27;;;;;;;5.23;3.80;;;;;;;;;;5014187;28;20197;-80
2021/12/16 12:48:55;;;;;;;6.77;3.83;;;;;;;;;;5012214;28;20228;-80
2021/12/16 12:51:32;;;;;;;3.97;3.50;;;;;;;;;;5025567;28;20290;-80
2021/12/16 12:53:59;;;;;;;5.47;3.80;;;;;;;;;;5032033;28;20289;-80
2021/12/16 12:56:30;;;;;;;4.97;3.70;;;;;;;;;;5031100;28;20272;-80
2021/12/16 12:58:59;;;;;;;4.23;3.40;;;;;;;;;;5031466;28;20287;-80
2021/12/16 13:01:41;;;;;;;4.67;4.00;;;;;;;;;;5031921;28;20200;-80
2021/12/16 13:04:10;;;;;;;4.50;3.50;;;;;;;;;;5031622;28;20288;-80
2021/12/16 13:07:04;;;;;;;4.57;3.77;;;;;;;;;;5031399;28;20675;-80
2021/12/16 13:09:38;;;;;;;4.27;3.50;;;;;;;;;;4969636;28;20652;-80
2021/12/16 13:12:26;;;;;;;5.17;4.17;;;;;;;;;;4970388;28;20356;-80
2021/12/16 13:15:03;;;;;;;5.90;3.90;;;;;;;;;;4970451;28;20206;-80
2021/12/16 13:26:23;;;;;;;4.43;3.77;;;;;;;;;;4970127;28;20220;-80
2021/12/16 13:29:03;;;;;;;4.70;3.37;;;;;;;;;;4969743;28;20320;-80
2021/12/16 13:31:35;;;;;;;5.33;4.00;;;;;;;;;;4970333;28;20202;-81
2021/12/16 13:34:03;;;;;;;5.40;4.10;;;;;;;;;;4970200;28;20718;-80
2021/12/16 13:36:40;;;;;;;5.33;4.13;;;;;;;;;;4970346;28;20213;-80
2021/12/16 13:39:11;;;;;;;4.73;4.00;;;;;;;;;;4969894;28;20241;-80
2021/12/16 13:41:53;;;;;;;5.33;4.20;;;;;;;;;;4970285;28;20721;-80
2021/12/16 13:44:20;;;;;;;5.97;4.27;;;;;;;;;;4976331;28;20309;-81
2021/12/16 13:47:03;;;;;;;5.70;4.10;;;;;;;;;;5031113;28;20626;-80
2021/12/16 14:01:28;;;;;;;5.67;4.93;;;;;;;;;;4989753;28;20276;-80
2021/12/16 14:04:07;;;;;;;5.83;4.23;;;;;;;;;;4990007;28;20212;-80
2021/12/16 14:06:38;;;;;;;7.87;4.50;;;;;;;;;;4990111;28;20341;-80
2021/12/16 14:09:16;;;;;;;6.87;4.63;;;;;;;;;;4989335;28;20226;-80
2021/12/16 14:14:54;;;;;;;7.67;4.60;;;;;;;;;;4989780;28;20292;-80
2021/12/16 14:17:43;;;;;;;6.67;4.63;;;;;;;;;;4989787;28;20213;-80
2021/12/16 14:23:07;;;;;;;6.57;4.77;;;;;;;;;;4989392;28;20200;-80
2021/12/16 14:25:40;;;;;;;6.57;5.23;;;;;;;;;;4988645;28;20197;-80
2021/12/16 14:31:25;;;;;;;7.93;5.47;;;;;;;;;;4992170;28;20264;-81
2021/12/16 14:42:17;;;;;;;6.27;4.70;;;;;;;;;;5014593;28;20197;-80
2021/12/16 14:50:20;;;;;;;7.07;4.83;;;;;;;;;;5030203;28;20204;-80
2021/12/16 14:52:47;;;;;;;6.17;4.60;;;;;;;;;;5033868;28;20207;-80
2021/12/16 14:55:15;;;;;;;6.40;4.50;;;;;;;;;;5033599;28;20771;-80
2021/12/16 14:57:44;;;;;;;7.93;5.13;;;;;;;;;;5033793;28;20319;-80
2021/12/16 15:00:14;;;;;;;6.33;4.50;;;;;;;;;;5033814;28;20291;-80
2021/12/16 15:02:44;;;;;;;7.23;4.40;;;;;;;;;;5034414;28;20197;-80
2021/12/16 15:05:25;;;;;;;7.17;4.80;;;;;;;;;;5033783;28;20664;-80
2021/12/16 15:07:52;;;;;;;6.20;4.63;;;;;;;;;;5033520;28;20795;-80
2021/12/16 15:10:22;;;;;;;7.47;4.57;;;;;;;;;;5033525;28;20200;-80
2021/12/16 15:12:58;;;;;;;6.70;4.50;;;;;;;;;;5033815;28;20295;-80
2021/12/16 15:15:32;;;;;;;6.67;4.77;;;;;;;;;;5014738;28;20213;-80
2021/12/16 15:40:42;;;;;;;6.73;5.20;;;;;;;;;;4933103;29;20207;-81
2021/12/16 15:43:13;;;;;;;8.10;5.27;;;;;;;;;;4933191;29;20281;-80
2021/12/16 15:45:42;;;;;;;11.93;5.30;;;;;;;;;;4934084;29;20342;-81
2021/12/16 15:48:11;;;;;;;7.23;4.60;;;;;;;;;;4933707;29;20300;-81
2021/12/16 15:50:41;;;;;;;8.13;5.87;;;;;;;;;;4932862;29;20306;-80
2021/12/16 15:53:10;;;;;;;7.40;5.40;;;;;;;;;;4933764;29;20242;-80
2021/12/16 15:55:39;;;;;;;5.93;4.70;;;;;;;;;;4933321;29;20279;-80
2021/12/16 15:58:08;;;;;;;5.87;4.57;;;;;;;;;;4933741;29;20200;-80
2021/12/16 16:00:38;;;;;;;7.37;5.47;;;;;;;;;;4933418;29;20234;-80
2021/12/16 16:03:08;;;;;;;6.63;4.53;;;;;;;;;;4931495;29;20775;-80
2021/12/16 16:05:36;;;;;;;6.53;5.40;;;;;;;;;;4949677;28;20207;-80
2021/12/16 16:08:06;;;;;;;7.23;4.97;;;;;;;;;;4962337;28;20314;-81
2021/12/16 16:10:33;;;;;;;6.83;4.80;;;;;;;;;;4952204;29;20294;-81
2021/12/16 16:13:08;;;;;;;10.03;6.00;;;;;;;;;;4952621;29;20246;-81
2021/12/16 16:15:35;;;;;;;7.57;6.00;;;;;;;;;;4963412;28;20236;-81
2021/12/16 16:18:13;;;;;;;8.87;5.60;;;;;;;;;;5014296;28;20284;-81
2021/12/16 16:20:41;;;;;;;8.57;5.80;;;;;;;;;;5032979;28;20200;-81
2021/12/16 16:23:11;;;;;;;6.97;5.37;;;;;;;;;;5033145;28;20667;-81
2021/12/16 16:25:38;;;;;;;8.97;5.93;;;;;;;;;;5032746;28;20636;-82
2021/12/16 16:28:06;;;;;;;7.00;5.50;;;;;;;;;;5032976;28;20315;-81
2021/12/16 16:30:34;;;;;;;8.00;5.93;;;;;;;;;;5032766;28;20232;-82
2021/12/16 16:33:06;;;;;;;6.57;5.37;;;;;;;;;;5032892;28;20291;-81
2021/12/16 16:35:35;;;;;;;6.93;5.70;;;;;;;;;;5032674;28;20287;-81
2021/12/16 16:38:10;;;;;;;7.77;5.87;;;;;;;;;;5032922;28;20235;-81
2021/12/16 16:40:39;;;;;;;7.00;5.73;;;;;;;;;;5033062;28;20398;-81
2021/12/16 16:43:17;;;;;;;6.80;5.33;;;;;;;;;;5032905;28;20207;-81
2021/12/16 16:45:44;;;;;;;7.40;4.87;;;;;;;;;;5031718;28;20683;-80
2021/12/16 16:48:28;;;;;;;9.57;5.43;;;;;;;;;;5032041;28;20723;-81
2021/12/16 16:51:03;;;;;;;7.37;5.40;;;;;;;;;;5022507;28;20234;-80
2021/12/16 16:53:32;;;;;;;8.03;5.60;;;;;;;;;;5032376;28;20284;-80
2021/12/16 16:56:02;;;;;;;8.20;5.73;;;;;;;;;;5032628;28;20303;-81
2021/12/16 16:58:34;;;;;;;7.97;5.40;;;;;;;;;;5016142;28;20193;-81
2021/12/16 17:01:02;;;;;;;8.03;5.60;;;;;;;;;;5013034;28;20296;-80
2021/12/16 17:03:30;;;;;;;8.73;5.73;;;;;;;;;;5012759;28;20292;-81
2021/12/16 17:05:59;;;;;;;7.10;5.30;;;;;;;;;;5012781;28;20236;-80
2021/12/16 17:08:28;;;;;;;9.03;5.80;;;;;;;;;;5017823;28;20712;-79
2021/12/16 17:10:59;;;;;;;8.73;6.77;;;;;;;;;;5026559;28;20216;-79
2021/12/16 17:13:38;;;;;;;7.63;6.30;;;;;;;;;;5018681;28;20192;-79
2021/12/16 17:18:51;;;;;;;7.53;6.17;;;;;;;;;;5013479;28;20288;-80
2021/12/16 17:21:20;;;;;;;9.07;6.27;;;;;;;;;;5031461;28;20294;-79
2021/12/16 17:23:50;;;;;;;8.57;6.47;;;;;;;;;;5021890;28;20240;-79
2021/12/16 17:26:22;;;;;;;9.23;6.80;;;;;;;;;;5016785;28;20203;-79
2021/12/16 17:28:52;;;;;;;10.20;7.43;;;;;;;;;;5022901;28;20343;-79
2021/12/16 17:31:30;;;;;;;11.50;8.40;;;;;;;;;;5025317;28;20192;-79
2021/12/16 17:34:04;;;;;;;12.00;7.27;;;;;;;;;;5022193;28;20287;-79
2021/12/16 17:36:32;;;;;;;8.17;6.93;;;;;;;;;;5026594;28;20279;-80
2021/12/16 17:39:07;;;;;;;9.47;7.03;;;;;;;;;;5012336;28;20197;-80
2021/12/16 17:41:36;;;;;;;8.30;6.40;;;;;;;;;;5016016;28;20211;-80
2021/12/16 17:44:10;;;;;;;7.63;6.63;;;;;;;;;;5022721;28;20235;-79
2021/12/16 17:46:38;;;;;;;8.70;7.13;;;;;;;;;;5017597;28;20201;-79
2021/12/16 17:49:08;;;;;;;51.43;43.97;;;;;;;;;;5024236;28;20671;-79
2021/12/16 17:51:35;;;;;;;31.37;23.33;;;;;;;;;;5023489;28;20216;-79